sensor_id;sensor_type;location;lat;lon;timestamp;temperature;humidity
55054;DHT22;40954;45.668;18.980;2022-11-15T00:01:28;281.90;2278.40
55054;DHT22;40954;45.668;18.980;2022-11-15T00:03:54;281.90;2278.40
55054;DHT22;40954;45.668;18.980;2022-11-15T00:06:20;281.90;2278.40
55054;DHT22;40954;45.668;18.980;2022-11-15T00:08:46;281.90;2278.40
55054;DHT22;40954;45.668;18.980;2022-11-15T00:11:12;281.90;2278.40
55054;DHT22;40954;45.668;18.980;2022-11-15T00:13:38;281.90;2278.40
55054;DHT22;40954;45.668;18.980;2022-11-15T00:16:04;281.90;2278.40
55054;DHT22;40954;45.668;18.980;2022-11-15T00:18:30;281.90;2278.40
55054;DHT22;40954;45.668;18.980;2022-11-15T00:21:03;281.90;2278.40
55054;DHT22;40954;45.668;18.980;2022-11-15T00:23:29;281.90;2278.40
55054;DHT22;40954;45.668;18.980;2022-11-15T00:25:56;281.90;2278.40
55054;DHT22;40954;45.668;18.980;2022-11-15T00:28:23;281.80;2278.40
55054;DHT22;40954;45.668;18.980;2022-11-15T00:30:49;281.80;2278.40
55054;DHT22;40954;45.668;18.980;2022-11-15T00:33:14;281.80;2278.40
55054;DHT22;40954;45.668;18.980;2022-11-15T00:35:40;281.80;2278.40
55054;DHT22;40954;45.668;18.980;2022-11-15T00:38:06;281.70;2278.40
55054;DHT22;40954;45.668;18.980;2022-11-15T00:40:31;281.80;2278.40
55054;DHT22;40954;45.668;18.980;2022-11-15T00:42:57;281.70;2278.40
55054;DHT22;40954;45.668;18.980;2022-11-15T00:45:24;281.70;2278.40
55054;DHT22;40954;45.668;18.980;2022-11-15T00:47:49;281.70;2278.40
55054;DHT22;40954;45.668;18.980;2022-11-15T00:50:15;281.70;2278.40
55054;DHT22;40954;45.668;18.980;2022-11-15T00:52:42;281.70;2278.40
55054;DHT22;40954;45.668;18.980;2022-11-15T00:55:16;281.60;2278.40
55054;DHT22;40954;45.668;18.980;2022-11-15T00:57:42;281.60;2278.40
55054;DHT22;40954;45.668;18.980;2022-11-15T01:00:09;281.60;2278.40
55054;DHT22;40954;45.668;18.980;2022-11-15T01:02:35;256.90;2252.80
55054;DHT22;40954;45.668;18.980;2022-11-15T01:05:01;256.90;2252.80
55054;DHT22;40954;45.668;18.980;2022-11-15T01:07:27;256.90;2252.80
55054;DHT22;40954;45.668;18.980;2022-11-15T01:09:52;256.90;2252.80
55054;DHT22;40954;45.668;18.980;2022-11-15T01:12:19;256.80;2252.80
55054;DHT22;40954;45.668;18.980;2022-11-15T01:14:45;256.90;2252.80
55054;DHT22;40954;45.668;18.980;2022-11-15T01:17:10;256.90;2252.80
55054;DHT22;40954;45.668;18.980;2022-11-15T01:19:36;256.90;2252.80
55054;DHT22;40954;45.668;18.980;2022-11-15T01:22:02;256.90;2252.80
55054;DHT22;40954;45.668;18.980;2022-11-15T01:24:27;281.60;2278.40
55054;DHT22;40954;45.668;18.980;2022-11-15T01:26:53;256.90;2252.80
55054;DHT22;40954;45.668;18.980;2022-11-15T01:29:19;281.60;2278.40
55054;DHT22;40954;45.668;18.980;2022-11-15T01:31:44;281.60;2278.40
55054;DHT22;40954;45.668;18.980;2022-11-15T01:34:10;281.60;2278.40
55054;DHT22;40954;45.668;18.980;2022-11-15T01:36:36;281.60;2278.40
55054;DHT22;40954;45.668;18.980;2022-11-15T01:39:02;281.70;2278.40
55054;DHT22;40954;45.668;18.980;2022-11-15T01:41:32;281.70;2278.40
55054;DHT22;40954;45.668;18.980;2022-11-15T01:47:06;281.70;2278.40
55054;DHT22;40954;45.668;18.980;2022-11-15T01:49:35;281.80;2278.40
55054;DHT22;40954;45.668;18.980;2022-11-15T01:52:03;281.80;2278.40
55054;DHT22;40954;45.668;18.980;2022-11-15T01:54:30;281.80;2278.40
55054;DHT22;40954;45.668;18.980;2022-11-15T01:57:01;281.80;2278.40
55054;DHT22;40954;45.668;18.980;2022-11-15T01:59:28;281.80;2278.40
55054;DHT22;40954;45.668;18.980;2022-11-15T02:01:54;281.90;2278.40
55054;DHT22;40954;45.668;18.980;2022-11-15T02:04:29;281.80;2278.40
55054;DHT22;40954;45.668;18.980;2022-11-15T02:06:56;281.70;2278.40
55054;DHT22;40954;45.668;18.980;2022-11-15T02:09:22;281.70;2278.40
55054;DHT22;40954;45.668;18.980;2022-11-15T02:11:49;281.60;2278.40
55054;DHT22;40954;45.668;18.980;2022-11-15T02:14:17;256.90;2252.80
55054;DHT22;40954;45.668;18.980;2022-11-15T02:19:48;281.60;2278.40
55054;DHT22;40954;45.668;18.980;2022-11-15T02:34:08;256.90;2252.80
55054;DHT22;40954;45.668;18.980;2022-11-15T02:37:31;281.60;2278.40
55054;DHT22;40954;45.668;18.980;2022-11-15T02:39:41;281.60;2278.40
55054;DHT22;40954;45.668;18.980;2022-11-15T02:42:30;256.90;2252.80
55054;DHT22;40954;45.668;18.980;2022-11-15T02:45:21;256.80;2252.80
55054;DHT22;40954;45.668;18.980;2022-11-15T02:47:50;256.80;2252.80
55054;DHT22;40954;45.668;18.980;2022-11-15T02:50:20;256.80;2252.80
55054;DHT22;40954;45.668;18.980;2022-11-15T02:52:48;256.70;2252.80
55054;DHT22;40954;45.668;18.980;2022-11-15T02:55:32;256.70;2252.80
55054;DHT22;40954;45.668;18.980;2022-11-15T03:01:17;256.80;2252.80
55054;DHT22;40954;45.668;18.980;2022-11-15T03:04:06;256.80;2252.80
55054;DHT22;40954;45.668;18.980;2022-11-15T03:06:45;256.80;2252.80
55054;DHT22;40954;45.668;18.980;2022-11-15T03:12:21;256.70;2252.80
55054;DHT22;40954;45.668;18.980;2022-11-15T03:14:52;256.70;2252.80
55054;DHT22;40954;45.668;18.980;2022-11-15T03:19:52;256.70;2252.80
55054;DHT22;40954;45.668;18.980;2022-11-15T03:22:22;256.70;2252.80
55054;DHT22;40954;45.668;18.980;2022-11-15T03:24:56;256.80;2252.80
55054;DHT22;40954;45.668;18.980;2022-11-15T03:27:25;256.80;2252.80
55054;DHT22;40954;45.668;18.980;2022-11-15T03:29:56;256.80;2252.80
55054;DHT22;40954;45.668;18.980;2022-11-15T03:32:28;256.60;2252.80
55054;DHT22;40954;45.668;18.980;2022-11-15T03:35:00;256.70;2252.80
55054;DHT22;40954;45.668;18.980;2022-11-15T03:40:08;256.70;2252.80
55054;DHT22;40954;45.668;18.980;2022-11-15T03:42:42;256.70;2252.80
55054;DHT22;40954;45.668;18.980;2022-11-15T03:47:47;256.80;2252.80
55054;DHT22;40954;45.668;18.980;2022-11-15T03:50:17;256.90;2252.80
55054;DHT22;40954;45.668;18.980;2022-11-15T03:52:45;256.80;2252.80
55054;DHT22;40954;45.668;18.980;2022-11-15T03:55:15;256.90;2252.80
55054;DHT22;40954;45.668;18.980;2022-11-15T03:57:42;281.60;2278.40
55054;DHT22;40954;45.668;18.980;2022-11-15T04:00:08;256.90;2252.80
55054;DHT22;40954;45.668;18.980;2022-11-15T04:02:34;256.90;2252.80
55054;DHT22;40954;45.668;18.980;2022-11-15T04:05:00;256.80;2252.80
55054;DHT22;40954;45.668;18.980;2022-11-15T04:07:26;256.80;2252.80
55054;DHT22;40954;45.668;18.980;2022-11-15T04:09:51;256.80;2252.80
55054;DHT22;40954;45.668;18.980;2022-11-15T04:12:35;256.80;2252.80
55054;DHT22;40954;45.668;18.980;2022-11-15T04:17:43;281.60;2278.40
55054;DHT22;40954;45.668;18.980;2022-11-15T04:20:10;256.90;2252.80
55054;DHT22;40954;45.668;18.980;2022-11-15T04:22:56;256.80;2252.80
55054;DHT22;40954;45.668;18.980;2022-11-15T04:25:41;256.80;2252.80
55054;DHT22;40954;45.668;18.980;2022-11-15T04:28:07;256.70;2252.80
55054;DHT22;40954;45.668;18.980;2022-11-15T04:30:32;256.80;2252.80
55054;DHT22;40954;45.668;18.980;2022-11-15T04:32:58;256.80;2252.80
55054;DHT22;40954;45.668;18.980;2022-11-15T04:35:24;281.60;2278.40
55054;DHT22;40954;45.668;18.980;2022-11-15T04:37:50;281.60;2278.40
55054;DHT22;40954;45.668;18.980;2022-11-15T04:40:16;256.90;2252.80
55054;DHT22;40954;45.668;18.980;2022-11-15T04:42:42;281.60;2278.40
55054;DHT22;40954;45.668;18.980;2022-11-15T04:45:08;281.60;2278.40
55054;DHT22;40954;45.668;18.980;2022-11-15T04:47:34;281.60;2278.40
55054;DHT22;40954;45.668;18.980;2022-11-15T04:50:00;256.80;2252.80
55054;DHT22;40954;45.668;18.980;2022-11-15T04:52:26;256.70;2252.80
55054;DHT22;40954;45.668;18.980;2022-11-15T04:54:52;256.80;2252.80
55054;DHT22;40954;45.668;18.980;2022-11-15T04:57:18;256.80;2252.80
55054;DHT22;40954;45.668;18.980;2022-11-15T04:59:44;256.80;2252.80
55054;DHT22;40954;45.668;18.980;2022-11-15T05:02:09;256.80;2252.80
55054;DHT22;40954;45.668;18.980;2022-11-15T05:04:35;256.70;2252.80
55054;DHT22;40954;45.668;18.980;2022-11-15T05:07:01;256.70;2252.80
55054;DHT22;40954;45.668;18.980;2022-11-15T05:09:27;256.70;2252.80
55054;DHT22;40954;45.668;18.980;2022-11-15T05:11:53;256.70;2252.80
55054;DHT22;40954;45.668;18.980;2022-11-15T05:14:18;256.70;2252.80
55054;DHT22;40954;45.668;18.980;2022-11-15T05:16:44;256.60;2252.80
55054;DHT22;40954;45.668;18.980;2022-11-15T05:19:10;256.50;2252.80
55054;DHT22;40954;45.668;18.980;2022-11-15T05:21:36;256.50;2252.80
55054;DHT22;40954;45.668;18.980;2022-11-15T05:24:02;256.40;2252.80
55054;DHT22;40954;45.668;18.980;2022-11-15T05:26:28;256.40;2252.80
55054;DHT22;40954;45.668;18.980;2022-11-15T05:28:55;256.40;2252.80
55054;DHT22;40954;45.668;18.980;2022-11-15T05:31:22;256.40;2252.80
55054;DHT22;40954;45.668;18.980;2022-11-15T05:33:49;256.40;2252.80
55054;DHT22;40954;45.668;18.980;2022-11-15T05:36:42;256.40;2252.80
55054;DHT22;40954;45.668;18.980;2022-11-15T05:39:08;256.60;2252.80
55054;DHT22;40954;45.668;18.980;2022-11-15T05:41:39;256.60;2252.80
55054;DHT22;40954;45.668;18.980;2022-11-15T05:44:09;256.70;2252.80
55054;DHT22;40954;45.668;18.980;2022-11-15T05:46:37;256.70;2252.80
55054;DHT22;40954;45.668;18.980;2022-11-15T05:49:05;256.70;2252.80
55054;DHT22;40954;45.668;18.980;2022-11-15T05:51:33;256.70;2252.80
55054;DHT22;40954;45.668;18.980;2022-11-15T05:54:00;256.80;2252.80
55054;DHT22;40954;45.668;18.980;2022-11-15T05:56:26;256.80;2252.80
55054;DHT22;40954;45.668;18.980;2022-11-15T05:58:53;256.90;2252.80
55054;DHT22;40954;45.668;18.980;2022-11-15T06:01:21;256.90;2252.80
55054;DHT22;40954;45.668;18.980;2022-11-15T06:03:46;281.60;2278.40
55054;DHT22;40954;45.668;18.980;2022-11-15T06:06:12;256.90;2252.80
55054;DHT22;40954;45.668;18.980;2022-11-15T06:08:38;256.90;2252.80
55054;DHT22;40954;45.668;18.980;2022-11-15T06:11:05;281.60;2278.40
55054;DHT22;40954;45.668;18.980;2022-11-15T06:13:31;281.60;2278.40
55054;DHT22;40954;45.668;18.980;2022-11-15T06:15:57;281.60;2278.40
55054;DHT22;40954;45.668;18.980;2022-11-15T06:18:23;281.60;2278.40
55054;DHT22;40954;45.668;18.980;2022-11-15T06:20:49;281.70;2278.40
55054;DHT22;40954;45.668;18.980;2022-11-15T06:23:15;281.70;2278.40
55054;DHT22;40954;45.668;18.980;2022-11-15T06:25:40;281.90;2278.40
55054;DHT22;40954;45.668;18.980;2022-11-15T06:28:06;282.00;2278.40
55054;DHT22;40954;45.668;18.980;2022-11-15T06:30:32;282.00;2278.40
55054;DHT22;40954;45.668;18.980;2022-11-15T06:33:05;282.00;2278.40
55054;DHT22;40954;45.668;18.980;2022-11-15T06:35:33;282.00;2278.40
55054;DHT22;40954;45.668;18.980;2022-11-15T06:38:04;282.10;2278.40
55054;DHT22;40954;45.668;18.980;2022-11-15T06:40:33;282.20;2278.40
55054;DHT22;40954;45.668;18.980;2022-11-15T06:42:59;282.10;2278.40
55054;DHT22;40954;45.668;18.980;2022-11-15T06:45:25;282.10;2278.40
55054;DHT22;40954;45.668;18.980;2022-11-15T06:47:51;282.10;2278.40
55054;DHT22;40954;45.668;18.980;2022-11-15T06:50:17;282.10;2278.40
55054;DHT22;40954;45.668;18.980;2022-11-15T06:52:43;282.00;2278.40
55054;DHT22;40954;45.668;18.980;2022-11-15T06:55:08;281.90;2278.40
55054;DHT22;40954;45.668;18.980;2022-11-15T06:57:35;281.90;2278.40
55054;DHT22;40954;45.668;18.980;2022-11-15T07:00:01;282.00;2278.40
55054;DHT22;40954;45.668;18.980;2022-11-15T07:02:26;282.10;2278.40
55054;DHT22;40954;45.668;18.980;2022-11-15T07:04:52;282.10;2278.40
55054;DHT22;40954;45.668;18.980;2022-11-15T07:07:18;282.10;2278.40
55054;DHT22;40954;45.668;18.980;2022-11-15T07:09:43;282.20;2278.40
55054;DHT22;40954;45.668;18.980;2022-11-15T07:12:09;282.30;2278.40
55054;DHT22;40954;45.668;18.980;2022-11-15T07:14:35;282.50;2278.40
55054;DHT22;40954;45.668;18.980;2022-11-15T07:17:03;307.20;2304.00
55054;DHT22;40954;45.668;18.980;2022-11-15T07:19:29;282.50;2278.40
55054;DHT22;40954;45.668;18.980;2022-11-15T07:21:55;307.30;2304.00
55054;DHT22;40954;45.668;18.980;2022-11-15T07:24:21;307.50;2304.00
55054;DHT22;40954;45.668;18.980;2022-11-15T07:26:46;307.50;2304.00
55054;DHT22;40954;45.668;18.980;2022-11-15T07:29:12;307.50;2304.00
55054;DHT22;40954;45.668;18.980;2022-11-15T07:31:38;307.50;2304.00
55054;DHT22;40954;45.668;18.980;2022-11-15T07:34:04;307.80;2304.00
55054;DHT22;40954;45.668;18.980;2022-11-15T07:36:30;307.90;2304.00
55054;DHT22;40954;45.668;18.980;2022-11-15T07:38:55;332.80;2329.60
55054;DHT22;40954;45.668;18.980;2022-11-15T07:41:21;308.10;2304.00
55054;DHT22;40954;45.668;18.980;2022-11-15T07:43:47;308.10;2304.00
55054;DHT22;40954;45.668;18.980;2022-11-15T07:46:16;332.80;2329.60
55054;DHT22;40954;45.668;18.980;2022-11-15T07:48:41;332.80;2329.60
55054;DHT22;40954;45.668;18.980;2022-11-15T07:51:11;332.80;2329.60
55054;DHT22;40954;45.668;18.980;2022-11-15T07:53:36;332.90;2329.60
55054;DHT22;40954;45.668;18.980;2022-11-15T07:56:02;333.00;2329.60
55054;DHT22;40954;45.668;18.980;2022-11-15T07:58:30;333.20;2329.60
55054;DHT22;40954;45.668;18.980;2022-11-15T08:00:56;333.00;2329.60
55054;DHT22;40954;45.668;18.980;2022-11-15T08:03:21;333.20;2329.60
55054;DHT22;40954;45.668;18.980;2022-11-15T08:05:50;333.40;2329.60
55054;DHT22;40954;45.668;18.980;2022-11-15T08:08:16;333.70;2329.60
55054;DHT22;40954;45.668;18.980;2022-11-15T08:10:42;358.70;2329.60
55054;DHT22;40954;45.668;18.980;2022-11-15T08:13:09;359.00;2329.60
55054;DHT22;40954;45.668;18.980;2022-11-15T08:15:36;359.10;2329.60
55054;DHT22;40954;45.668;18.980;2022-11-15T08:18:15;359.20;2329.60
55054;DHT22;40954;45.668;18.980;2022-11-15T08:20:42;359.10;2329.60
55054;DHT22;40954;45.668;18.980;2022-11-15T08:23:10;359.00;2329.60
55054;DHT22;40954;45.668;18.980;2022-11-15T08:25:36;358.90;2329.60
55054;DHT22;40954;45.668;18.980;2022-11-15T08:28:04;358.60;2329.60
55054;DHT22;40954;45.668;18.980;2022-11-15T08:30:33;358.70;2329.60
55054;DHT22;40954;45.668;18.980;2022-11-15T08:32:59;358.60;2329.60
55054;DHT22;40954;45.668;18.980;2022-11-15T08:35:25;358.40;2329.60
55054;DHT22;40954;45.668;18.980;2022-11-15T08:37:53;358.50;2329.60
55054;DHT22;40954;45.668;18.980;2022-11-15T08:40:19;358.60;2329.60
55054;DHT22;40954;45.668;18.980;2022-11-15T08:42:48;358.80;2329.60
55054;DHT22;40954;45.668;18.980;2022-11-15T08:45:14;358.70;2329.60
55054;DHT22;40954;45.668;18.980;2022-11-15T08:47:40;358.70;2329.60
55054;DHT22;40954;45.668;18.980;2022-11-15T08:50:07;358.60;2329.60
55054;DHT22;40954;45.668;18.980;2022-11-15T08:52:33;333.70;2329.60
55054;DHT22;40954;45.668;18.980;2022-11-15T08:54:59;358.40;2329.60
55054;DHT22;40954;45.668;18.980;2022-11-15T08:57:27;358.40;2329.60
55054;DHT22;40954;45.668;18.980;2022-11-15T08:59:53;358.70;2329.60
55054;DHT22;40954;45.668;18.980;2022-11-15T09:02:19;358.80;2329.60
55054;DHT22;40954;45.668;18.980;2022-11-15T09:04:44;358.90;2329.60
55054;DHT22;40954;45.668;18.980;2022-11-15T09:07:11;359.00;2329.60
55054;DHT22;40954;45.668;18.980;2022-11-15T09:09:37;359.10;2329.60
55054;DHT22;40954;45.668;18.980;2022-11-15T09:12:03;358.90;2329.60
55054;DHT22;40954;45.668;18.980;2022-11-15T09:14:29;358.90;2329.60
55054;DHT22;40954;45.668;18.980;2022-11-15T09:16:55;358.90;2329.60
55054;DHT22;40954;45.668;18.980;2022-11-15T09:19:21;358.90;2329.60
55054;DHT22;40954;45.668;18.980;2022-11-15T09:21:47;358.90;2329.60
55054;DHT22;40954;45.668;18.980;2022-11-15T09:24:12;358.90;2329.60
55054;DHT22;40954;45.668;18.980;2022-11-15T09:26:39;358.90;2329.60
55054;DHT22;40954;45.668;18.980;2022-11-15T09:29:05;358.80;2329.60
55054;DHT22;40954;45.668;18.980;2022-11-15T09:31:31;358.90;2329.60
55054;DHT22;40954;45.668;18.980;2022-11-15T09:33:56;358.60;2329.60
55054;DHT22;40954;45.668;18.980;2022-11-15T09:36:22;358.40;2329.60
55054;DHT22;40954;45.668;18.980;2022-11-15T09:38:48;333.60;2329.60
55054;DHT22;40954;45.668;18.980;2022-11-15T09:49:22;333.30;2329.60
55054;DHT22;40954;45.668;18.980;2022-11-15T09:51:50;333.40;2329.60
55054;DHT22;40954;45.668;18.980;2022-11-15T09:54:48;333.60;2329.60
55054;DHT22;40954;45.668;18.980;2022-11-15T09:57:21;333.60;2329.60
55054;DHT22;40954;45.668;18.980;2022-11-15T10:00:04;333.50;2329.60
55054;DHT22;40954;45.668;18.980;2022-11-15T10:04:58;333.40;2329.60
55054;DHT22;40954;45.668;18.980;2022-11-15T10:07:58;333.40;2329.60
55054;DHT22;40954;45.668;18.980;2022-11-15T10:10:43;333.50;2329.60
55054;DHT22;40954;45.668;18.980;2022-11-15T10:13:23;333.60;2329.60
55054;DHT22;40954;45.668;18.980;2022-11-15T10:15:50;333.40;2329.60
55054;DHT22;40954;45.668;18.980;2022-11-15T10:18:35;333.50;2329.60
55054;DHT22;40954;45.668;18.980;2022-11-15T10:21:17;333.60;2329.60
55054;DHT22;40954;45.668;18.980;2022-11-15T10:23:43;333.50;2329.60
55054;DHT22;40954;45.668;18.980;2022-11-15T10:26:13;333.50;2329.60
55054;DHT22;40954;45.668;18.980;2022-11-15T10:28:40;333.30;2329.60
55054;DHT22;40954;45.668;18.980;2022-11-15T10:31:22;333.30;2329.60
55054;DHT22;40954;45.668;18.980;2022-11-15T10:33:48;333.40;2329.60
55054;DHT22;40954;45.668;18.980;2022-11-15T10:36:22;333.60;2329.60
55054;DHT22;40954;45.668;18.980;2022-11-15T10:41:22;358.50;2329.60
55054;DHT22;40954;45.668;18.980;2022-11-15T10:46:39;359.20;2329.60
55054;DHT22;40954;45.668;18.980;2022-11-15T10:49:28;384.00;2329.60
55054;DHT22;40954;45.668;18.980;2022-11-15T10:52:15;384.00;2329.60
55054;DHT22;40954;45.668;18.980;2022-11-15T10:57:49;359.00;2329.60
55054;DHT22;40954;45.668;18.980;2022-11-15T11:08:03;358.50;2329.60
55054;DHT22;40954;45.668;18.980;2022-11-15T11:10:29;358.60;2329.60
55054;DHT22;40954;45.668;18.980;2022-11-15T11:12:55;358.70;2329.60
55054;DHT22;40954;45.668;18.980;2022-11-15T11:15:24;358.60;2329.60
55054;DHT22;40954;45.668;18.980;2022-11-15T11:18:01;358.70;2329.60
55054;DHT22;40954;45.668;18.980;2022-11-15T11:20:37;358.50;2329.60
55054;DHT22;40954;45.668;18.980;2022-11-15T11:28:52;358.80;2329.60
55054;DHT22;40954;45.668;18.980;2022-11-15T11:37:09;384.00;2329.60
55054;DHT22;40954;45.668;18.980;2022-11-15T11:47:40;358.70;2329.60
55054;DHT22;40954;45.668;18.980;2022-11-15T11:50:20;358.70;2329.60
55054;DHT22;40954;45.668;18.980;2022-11-15T11:53:12;358.80;2329.60
55054;DHT22;40954;45.668;18.980;2022-11-15T11:55:53;358.80;2329.60
55054;DHT22;40954;45.668;18.980;2022-11-15T11:58:41;358.80;2329.60
55054;DHT22;40954;45.668;18.980;2022-11-15T12:08:53;358.90;2329.60
55054;DHT22;40954;45.668;18.980;2022-11-15T12:11:28;358.80;2329.60
55054;DHT22;40954;45.668;18.980;2022-11-15T12:13:58;358.70;2329.60
55054;DHT22;40954;45.668;18.980;2022-11-15T12:16:32;358.60;2329.60
55054;DHT22;40954;45.668;18.980;2022-11-15T12:19:03;358.40;2329.60
55054;DHT22;40954;45.668;18.980;2022-11-15T12:24:28;333.60;2329.60
55054;DHT22;40954;45.668;18.980;2022-11-15T12:27:37;333.70;2329.60
55054;DHT22;40954;45.668;18.980;2022-11-15T12:30:00;333.70;2329.60
55054;DHT22;40954;45.668;18.980;2022-11-15T12:32:36;333.70;2329.60
55054;DHT22;40954;45.668;18.980;2022-11-15T12:35:20;333.50;2329.60
55054;DHT22;40954;45.668;18.980;2022-11-15T12:37:49;333.60;2329.60
55054;DHT22;40954;45.668;18.980;2022-11-15T12:45:32;333.70;2329.60
55054;DHT22;40954;45.668;18.980;2022-11-15T13:17:34;333.10;2329.60
55054;DHT22;40954;45.668;18.980;2022-11-15T13:25:53;333.10;2329.60
55054;DHT22;40954;45.668;18.980;2022-11-15T13:28:57;333.10;2329.60
55054;DHT22;40954;45.668;18.980;2022-11-15T13:31:36;333.30;2329.60
55054;DHT22;40954;45.668;18.980;2022-11-15T13:36:47;333.10;2329.60
55054;DHT22;40954;45.668;18.980;2022-11-15T13:39:33;332.80;2329.60
55054;DHT22;40954;45.668;18.980;2022-11-15T13:42:03;332.80;2329.60
55054;DHT22;40954;45.668;18.980;2022-11-15T13:44:33;332.80;2329.60
55054;DHT22;40954;45.668;18.980;2022-11-15T13:47:06;332.90;2329.60
55054;DHT22;40954;45.668;18.980;2022-11-15T13:49:33;333.10;2329.60
55054;DHT22;40954;45.668;18.980;2022-11-15T13:52:01;333.20;2329.60
55054;DHT22;40954;45.668;18.980;2022-11-15T13:54:35;333.20;2329.60
55054;DHT22;40954;45.668;18.980;2022-11-15T13:57:05;333.20;2329.60
55054;DHT22;40954;45.668;18.980;2022-11-15T14:02:35;333.30;2329.60
55054;DHT22;40954;45.668;18.980;2022-11-15T14:05:21;333.40;2329.60
55054;DHT22;40954;45.668;18.980;2022-11-15T14:08:01;333.30;2329.60
55054;DHT22;40954;45.668;18.980;2022-11-15T14:12:58;332.90;2329.60
55054;DHT22;40954;45.668;18.980;2022-11-15T14:15:32;332.80;2329.60
55054;DHT22;40954;45.668;18.980;2022-11-15T14:17:58;332.80;2329.60
55054;DHT22;40954;45.668;18.980;2022-11-15T14:23:01;308.00;2304.00
55054;DHT22;40954;45.668;18.980;2022-11-15T14:25:34;308.00;2304.00
55054;DHT22;40954;45.668;18.980;2022-11-15T14:30:43;308.00;2304.00
55054;DHT22;40954;45.668;18.980;2022-11-15T14:33:35;308.10;2304.00
55054;DHT22;40954;45.668;18.980;2022-11-15T14:36:14;332.80;2329.60
55054;DHT22;40954;45.668;18.980;2022-11-15T14:38:40;308.00;2304.00
55054;DHT22;40954;45.668;18.980;2022-11-15T14:41:21;308.00;2304.00
55054;DHT22;40954;45.668;18.980;2022-11-15T14:43:47;308.00;2304.00
55054;DHT22;40954;45.668;18.980;2022-11-15T14:46:13;308.00;2304.00
55054;DHT22;40954;45.668;18.980;2022-11-15T14:48:38;308.00;2304.00
55054;DHT22;40954;45.668;18.980;2022-11-15T14:51:13;308.00;2304.00
55054;DHT22;40954;45.668;18.980;2022-11-15T14:53:40;307.90;2304.00
55054;DHT22;40954;45.668;18.980;2022-11-15T14:56:07;307.80;2304.00
55054;DHT22;40954;45.668;18.980;2022-11-15T14:58:32;307.80;2304.00
55054;DHT22;40954;45.668;18.980;2022-11-15T15:00:58;307.80;2304.00
55054;DHT22;40954;45.668;18.980;2022-11-15T15:03:24;307.80;2304.00
55054;DHT22;40954;45.668;18.980;2022-11-15T15:05:49;307.70;2304.00
55054;DHT22;40954;45.668;18.980;2022-11-15T15:08:15;307.80;2304.00
55054;DHT22;40954;45.668;18.980;2022-11-15T15:10:43;307.80;2304.00
55054;DHT22;40954;45.668;18.980;2022-11-15T15:15:43;307.80;2304.00
55054;DHT22;40954;45.668;18.980;2022-11-15T15:18:09;307.80;2304.00
55054;DHT22;40954;45.668;18.980;2022-11-15T15:20:38;307.70;2304.00
55054;DHT22;40954;45.668;18.980;2022-11-15T15:23:05;307.60;2304.00
55054;DHT22;40954;45.668;18.980;2022-11-15T15:25:33;307.50;2304.00
55054;DHT22;40954;45.668;18.980;2022-11-15T15:28:00;307.50;2304.00
55054;DHT22;40954;45.668;18.980;2022-11-15T15:30:28;307.50;2304.00
55054;DHT22;40954;45.668;18.980;2022-11-15T15:32:54;307.60;2304.00
55054;DHT22;40954;45.668;18.980;2022-11-15T15:35:20;307.60;2304.00
55054;DHT22;40954;45.668;18.980;2022-11-15T15:37:47;307.50;2304.00
55054;DHT22;40954;45.668;18.980;2022-11-15T15:40:15;307.50;2304.00
55054;DHT22;40954;45.668;18.980;2022-11-15T15:42:41;307.50;2304.00
55054;DHT22;40954;45.668;18.980;2022-11-15T15:45:08;307.50;2304.00
55054;DHT22;40954;45.668;18.980;2022-11-15T15:47:34;307.50;2304.00
55054;DHT22;40954;45.668;18.980;2022-11-15T15:50:00;307.60;2304.00
55054;DHT22;40954;45.668;18.980;2022-11-15T15:52:26;307.40;2304.00
55054;DHT22;40954;45.668;18.980;2022-11-15T15:54:51;307.50;2304.00
55054;DHT22;40954;45.668;18.980;2022-11-15T15:57:17;307.40;2304.00
55054;DHT22;40954;45.668;18.980;2022-11-15T15:59:44;307.50;2304.00
55054;DHT22;40954;45.668;18.980;2022-11-15T16:02:12;307.50;2304.00
55054;DHT22;40954;45.668;18.980;2022-11-15T16:04:39;307.50;2304.00
55054;DHT22;40954;45.668;18.980;2022-11-15T16:07:05;307.50;2304.00
55054;DHT22;40954;45.668;18.980;2022-11-15T16:09:30;307.60;2304.00
55054;DHT22;40954;45.668;18.980;2022-11-15T16:12:14;307.60;2304.00
55054;DHT22;40954;45.668;18.980;2022-11-15T16:14:42;307.50;2304.00
55054;DHT22;40954;45.668;18.980;2022-11-15T16:17:18;307.50;2304.00
55054;DHT22;40954;45.668;18.980;2022-11-15T16:19:44;307.50;2304.00
55054;DHT22;40954;45.668;18.980;2022-11-15T16:22:10;307.50;2304.00
55054;DHT22;40954;45.668;18.980;2022-11-15T16:24:35;307.60;2304.00
55054;DHT22;40954;45.668;18.980;2022-11-15T16:27:01;307.60;2304.00
55054;DHT22;40954;45.668;18.980;2022-11-15T16:29:27;307.60;2304.00
55054;DHT22;40954;45.668;18.980;2022-11-15T16:31:53;307.60;2304.00
55054;DHT22;40954;45.668;18.980;2022-11-15T16:34:19;307.60;2304.00
55054;DHT22;40954;45.668;18.980;2022-11-15T16:36:45;307.60;2304.00
55054;DHT22;40954;45.668;18.980;2022-11-15T16:39:13;307.60;2304.00
55054;DHT22;40954;45.668;18.980;2022-11-15T16:41:40;307.60;2304.00
55054;DHT22;40954;45.668;18.980;2022-11-15T16:44:08;307.70;2304.00
55054;DHT22;40954;45.668;18.980;2022-11-15T16:46:34;307.60;2304.00
55054;DHT22;40954;45.668;18.980;2022-11-15T16:49:00;307.70;2304.00
55054;DHT22;40954;45.668;18.980;2022-11-15T16:51:25;307.70;2304.00
55054;DHT22;40954;45.668;18.980;2022-11-15T16:53:51;307.70;2304.00
55054;DHT22;40954;45.668;18.980;2022-11-15T16:58:51;307.80;2304.00
55054;DHT22;40954;45.668;18.980;2022-11-15T17:01:31;307.80;2304.00
55054;DHT22;40954;45.668;18.980;2022-11-15T17:03:58;307.80;2304.00
55054;DHT22;40954;45.668;18.980;2022-11-15T17:06:25;307.80;2304.00
55054;DHT22;40954;45.668;18.980;2022-11-15T17:08:51;307.80;2304.00
55054;DHT22;40954;45.668;18.980;2022-11-15T17:11:19;307.80;2304.00
55054;DHT22;40954;45.668;18.980;2022-11-15T17:13:46;307.80;2304.00
55054;DHT22;40954;45.668;18.980;2022-11-15T17:16:15;307.80;2304.00
55054;DHT22;40954;45.668;18.980;2022-11-15T17:18:41;307.80;2304.00